createdAt,value
2018-08-23T00:00:47.214Z,89.90
2018-08-23T00:03:21.567Z,90.06
2018-08-23T00:05:53.962Z,90.13
2018-08-23T00:08:23.637Z,89.82
2018-08-23T00:10:53.586Z,89.46
2018-08-23T00:13:23.356Z,90.27
2018-08-23T00:15:52.603Z,90.18
2018-08-23T00:18:21.876Z,90.49
2018-08-23T00:20:51.102Z,90.78
2018-08-23T00:23:20.342Z,90.77
2018-08-23T00:25:49.572Z,90.97
2018-08-23T00:28:18.799Z,91.26
2018-08-23T00:30:48.054Z,91.70
2018-08-23T00:33:17.308Z,92.30
2018-08-23T00:35:46.542Z,92.33
2018-08-23T00:38:16.179Z,91.79
2018-08-23T00:40:45.781Z,91.09
2018-08-23T00:43:15.379Z,91.23
2018-08-23T00:45:44.762Z,91.87
2018-08-23T00:48:14.011Z,92.41
2018-08-23T00:50:54.394Z,93.04
2018-08-23T00:53:23.767Z,92.75
2018-08-23T00:56:26.615Z,92.29
2018-08-23T00:59:01.617Z,91.67
2018-08-23T01:01:31.483Z,91.21
2018-08-23T01:04:00.722Z,92.05
2018-08-23T01:06:45.539Z,92.87
2018-08-23T01:09:15.039Z,93.40
2018-08-23T01:11:46.781Z,93.23
2018-08-23T01:14:16.031Z,93.53
2018-08-23T01:17:03.225Z,93.94
2018-08-23T01:19:37.544Z,93.48
2018-08-23T01:22:07.920Z,93.28
2018-08-23T01:24:37.135Z,93.15
2018-08-23T01:27:10.933Z,93.14
2018-08-23T01:29:44.299Z,93.30
2018-08-23T01:32:17.865Z,91.93
2018-08-23T01:34:47.120Z,91.10
2018-08-23T01:37:34.732Z,92.98
2018-08-23T01:40:06.085Z,93.69
2018-08-23T01:42:36.424Z,93.54
2018-08-23T01:45:07.286Z,92.92
2018-08-23T01:47:45.135Z,93.78
2018-08-23T01:50:15.054Z,93.67
2018-08-23T01:52:44.987Z,94.35
2018-08-23T01:55:15.042Z,94.88
2018-08-23T01:57:44.616Z,93.41
2018-08-23T02:00:17.795Z,92.07
2018-08-23T02:02:47.138Z,92.85
2018-08-23T02:05:16.394Z,92.15
2018-08-23T02:07:45.643Z,93.62
2018-08-23T02:10:14.995Z,94.76
2018-08-23T02:12:50.906Z,95.47
2018-08-23T02:15:20.547Z,95.79
2018-08-23T02:17:52.918Z,95.68
2018-08-23T02:20:23.007Z,95.98
2018-08-23T02:22:52.627Z,93.17
2018-08-23T02:25:21.876Z,92.33
2018-08-23T02:28:10.123Z,93.73
2018-08-23T02:30:49.379Z,92.92
2018-08-23T02:33:18.660Z,94.22
2018-08-23T02:36:08.739Z,95.02
2018-08-23T02:38:37.994Z,95.75
2018-08-23T02:41:08.347Z,95.79
2018-08-23T02:43:37.609Z,94.33
2018-08-23T02:46:06.965Z,94.75
2018-08-23T02:48:36.293Z,95.58
2018-08-23T02:51:05.880Z,95.43
2018-08-23T02:53:40.813Z,94.53
2018-08-23T02:56:12.410Z,92.35
2018-08-23T02:59:04.441Z,91.59
2018-08-23T03:01:34.929Z,92.58
2018-08-23T03:04:17.947Z,94.17
2018-08-23T03:06:54.396Z,94.51
2018-08-23T03:09:29.043Z,95.01
2018-08-23T03:12:00.650Z,95.30
2018-08-23T03:14:30.530Z,95.69
2018-08-23T03:17:36.702Z,95.72
2018-08-23T03:20:10.561Z,95.86
2018-08-23T03:22:41.683Z,95.57
2018-08-23T03:25:12.383Z,95.31
2018-08-23T03:27:41.748Z,95.54
2018-08-23T03:30:12.508Z,95.43
2018-08-23T03:32:41.922Z,95.21
2018-08-23T03:35:11.861Z,95.38
2018-08-23T03:37:41.275Z,94.39
2018-08-23T03:40:11.647Z,94.25
2018-08-23T03:42:41.986Z,93.40
2018-08-23T03:45:16.784Z,94.89
2018-08-23T03:47:52.464Z,95.15
2018-08-23T03:50:21.785Z,95.77
2018-08-23T03:52:52.373Z,95.89
2018-08-23T03:55:23.584Z,95.09
2018-08-23T03:57:57.101Z,96.44
2018-08-23T04:00:32.375Z,96.67
2018-08-23T04:03:03.140Z,96.22
2018-08-23T04:05:32.597Z,96.18
2018-08-23T04:08:01.996Z,96.91
2018-08-23T04:10:32.408Z,96.58
2018-08-23T04:13:01.772Z,96.99
2018-08-23T04:15:32.079Z,96.65
2018-08-23T04:18:08.427Z,96.87
2018-08-23T04:20:48.355Z,96.80
2018-08-23T04:23:17.857Z,97.32
2018-08-23T04:25:47.289Z,97.77
2018-08-23T04:28:16.731Z,97.29
2018-08-23T04:30:46.162Z,97.25
2018-08-23T04:33:15.642Z,96.36
2018-08-23T04:35:45.052Z,96.73
2018-08-23T04:38:14.481Z,96.49
2018-08-23T04:40:56.915Z,95.98
2018-08-23T04:43:26.356Z,96.39
2018-08-23T04:45:55.904Z,93.61
2018-08-23T04:48:25.397Z,94.31
2018-08-23T04:50:54.789Z,93.70
2018-08-23T04:53:24.296Z,94.26
2018-08-23T04:55:53.690Z,95.34
2018-08-23T04:58:23.049Z,94.48
2018-08-23T05:00:52.471Z,94.48
2018-08-23T05:03:21.926Z,93.59
2018-08-23T05:05:51.278Z,92.72
2018-08-23T05:08:20.649Z,92.65
2018-08-23T05:10:50.041Z,92.56
2018-08-23T05:13:19.574Z,92.08
2018-08-23T05:15:48.919Z,89.09
2018-08-23T05:18:18.317Z,89.15
2018-08-23T05:20:47.735Z,88.29
2018-08-23T05:23:17.196Z,86.34
2018-08-23T05:25:46.610Z,86.58
2018-08-23T05:28:19.405Z,86.13
2018-08-23T05:30:49.542Z,85.57
2018-08-23T05:33:22.998Z,74.95
2018-08-23T05:35:52.899Z,64.16
2018-08-23T05:38:22.261Z,55.87
2018-08-23T05:41:00.524Z,54.06
2018-08-23T05:43:29.898Z,50.05
2018-08-23T05:45:59.323Z,46.03
2018-08-23T05:48:31.900Z,45.53
2018-08-23T05:51:08.688Z,43.13
2018-08-23T05:53:46.406Z,40.98
2018-08-23T05:56:15.802Z,40.16
2018-08-23T05:58:45.249Z,39.48
2018-08-23T06:01:14.679Z,41.06
2018-08-23T06:03:44.063Z,40.34
2018-08-23T06:06:13.486Z,38.85
2018-08-23T06:08:46.838Z,38.62
2018-08-23T06:11:16.899Z,34.56
2018-08-23T06:13:46.359Z,35.15
2018-08-23T06:16:15.709Z,35.25
2018-08-23T06:18:45.056Z,33.22
2018-08-23T06:21:14.397Z,34.05
2018-08-23T06:24:05.582Z,33.53
2018-08-23T06:26:43.243Z,31.94
2018-08-23T06:29:19.592Z,39.17
2018-08-23T06:31:59.363Z,36.84
2018-08-23T06:34:30.417Z,34.97
2018-08-23T06:36:59.754Z,32.36
2018-08-23T06:39:29.167Z,35.93
2018-08-23T06:42:01.712Z,38.28
2018-08-23T06:44:43.706Z,41.46
2018-08-23T06:47:14.757Z,44.60
2018-08-23T06:49:45.306Z,37.17
2018-08-23T06:52:39.045Z,34.58
2018-08-23T06:55:13.632Z,31.82
2018-08-23T06:57:48.745Z,30.12
2018-08-23T07:00:23.276Z,32.78
2018-08-23T07:02:52.677Z,31.19
2018-08-23T07:05:22.165Z,29.38
2018-08-23T07:07:51.795Z,27.56
2018-08-23T07:10:21.175Z,28.67
2018-08-23T07:12:50.637Z,29.55
2018-08-23T07:15:20.170Z,29.47
2018-08-23T07:17:49.541Z,27.29
2018-08-23T07:20:20.093Z,27.67
2018-08-23T07:22:49.491Z,26.53
2018-08-23T07:25:19.647Z,24.79
2018-08-23T07:27:49.055Z,26.66
2018-08-23T07:30:19.738Z,26.14
2018-08-23T07:32:50.948Z,27.50
2018-08-23T07:35:21.359Z,25.88
2018-08-23T07:37:52.308Z,25.67
2018-08-23T07:40:22.832Z,26.78
2018-08-23T07:42:53.396Z,25.55
2018-08-23T07:45:22.886Z,24.39
2018-08-23T07:47:55.424Z,27.18
2018-08-23T07:50:24.836Z,25.02
2018-08-23T07:52:55.070Z,23.73
2018-08-23T07:55:24.404Z,24.79
2018-08-23T07:57:53.797Z,22.20
2018-08-23T08:00:30.377Z,24.44
2018-08-23T08:02:59.763Z,23.41
2018-08-23T08:05:30.401Z,24.68
2018-08-23T08:07:59.989Z,26.54
2018-08-23T08:10:39.230Z,27.66
2018-08-23T08:13:08.618Z,23.03
2018-08-23T08:15:38.011Z,25.89
2018-08-23T08:18:23.548Z,28.31
2018-08-23T08:21:03.511Z,26.22
2018-08-23T08:23:33.452Z,27.96
2018-08-23T08:26:02.812Z,24.37
2018-08-23T08:28:32.215Z,26.30
2018-08-23T08:31:02.556Z,25.84
2018-08-23T08:33:34.955Z,25.90
2018-08-23T08:36:05.168Z,25.42
2018-08-23T08:38:35.191Z,25.85
2018-08-23T08:41:04.610Z,26.44
2018-08-23T08:43:34.020Z,26.41
2018-08-23T08:46:03.402Z,25.96
2018-08-23T08:48:34.066Z,26.46
2018-08-23T08:51:28.931Z,26.69
2018-08-23T08:53:59.578Z,25.90
2018-08-23T08:56:34.667Z,27.27
2018-08-23T08:59:04.036Z,27.35
2018-08-23T09:01:33.749Z,27.20
2018-08-23T09:04:03.283Z,29.31
2018-08-23T09:06:37.928Z,27.14
2018-08-23T09:09:14.262Z,25.20
2018-08-23T09:11:43.671Z,26.44
2018-08-23T09:14:13.068Z,26.48
2018-08-23T09:16:42.543Z,30.00
2018-08-23T09:19:11.925Z,32.75
2018-08-23T09:21:42.492Z,30.44
2018-08-23T09:24:26.676Z,29.46
2018-08-23T09:26:57.734Z,27.13
2018-08-23T09:29:36.939Z,27.02
2018-08-23T09:32:19.807Z,28.27
2018-08-23T09:34:49.718Z,26.24
2018-08-23T09:37:19.047Z,28.42
2018-08-23T09:39:48.352Z,29.07
2018-08-23T09:42:17.645Z,27.16
2018-08-23T09:45:05.664Z,27.96
2018-08-23T09:47:35.006Z,30.98
2018-08-23T09:50:04.775Z,29.21
2018-08-23T09:52:38.644Z,29.57
2018-08-23T09:55:10.385Z,26.59
2018-08-23T09:57:39.776Z,28.46
2018-08-23T10:00:14.070Z,28.74
2018-08-23T10:02:48.580Z,27.39
2018-08-23T10:05:23.301Z,25.63
2018-08-23T10:07:57.755Z,25.73
2018-08-23T10:10:32.452Z,25.58
2018-08-23T10:13:07.068Z,24.71
2018-08-23T10:15:43.990Z,25.89
2018-08-23T10:18:18.657Z,29.78
2018-08-23T10:20:54.792Z,30.24
2018-08-23T10:23:25.068Z,29.43
2018-08-23T10:25:55.530Z,25.03
2018-08-23T10:28:27.128Z,27.23
2018-08-23T10:30:56.986Z,28.30
2018-08-23T10:33:26.332Z,26.11
2018-08-23T10:35:56.463Z,23.85
2018-08-23T10:38:27.884Z,25.79
2018-08-23T10:41:02.311Z,23.27
2018-08-23T10:43:36.984Z,22.19
2018-08-23T10:46:06.732Z,27.06
2018-08-23T10:48:36.067Z,28.29
2018-08-23T10:51:05.508Z,28.86
2018-08-23T10:53:34.924Z,25.48
2018-08-23T10:56:04.559Z,28.25
2018-08-23T10:58:33.881Z,26.64
2018-08-23T11:01:03.201Z,27.79
2018-08-23T11:03:32.480Z,28.83
2018-08-23T11:06:01.780Z,28.88
2018-08-23T11:08:35.838Z,28.32
2018-08-23T11:11:10.627Z,28.03
2018-08-23T11:13:45.079Z,27.69
2018-08-23T11:16:19.429Z,29.61
2018-08-23T11:18:53.853Z,26.43
2018-08-23T11:21:23.156Z,28.80
2018-08-23T11:23:52.501Z,27.05
2018-08-23T11:26:25.039Z,25.93
2018-08-23T11:28:54.336Z,26.06
2018-08-23T11:31:28.528Z,28.74
2018-08-23T11:33:57.876Z,27.57
2018-08-23T11:36:27.197Z,25.19
2018-08-23T11:38:56.539Z,28.33
2018-08-23T11:41:26.002Z,28.26
2018-08-23T11:43:55.486Z,24.77
2018-08-23T11:46:24.804Z,26.89
2018-08-23T11:48:54.176Z,26.50
2018-08-23T11:53:51.930Z,28.27
2018-08-23T11:56:21.231Z,28.45
2018-08-23T11:58:50.682Z,27.45
2018-08-23T12:01:20.057Z,27.37
2018-08-23T12:03:49.368Z,29.63
2018-08-23T12:06:18.724Z,28.21
2018-08-23T12:08:48.125Z,28.63
2018-08-23T12:11:17.514Z,29.43
2018-08-23T12:13:48.737Z,29.56
2018-08-23T12:16:18.340Z,30.17
2018-08-23T12:18:47.991Z,29.52
2018-08-23T12:21:17.386Z,27.63
2018-08-23T12:23:46.749Z,27.11
2018-08-23T12:26:16.252Z,27.13
2018-08-23T12:28:50.686Z,27.65
2018-08-23T12:31:20.099Z,27.73
2018-08-23T12:33:49.598Z,29.42
2018-08-23T12:36:24.297Z,28.43
2018-08-23T12:38:58.997Z,27.62
2018-08-23T12:41:33.483Z,28.03
2018-08-23T12:44:02.940Z,26.65
2018-08-23T12:46:32.482Z,28.48
2018-08-23T12:49:01.836Z,28.13
2018-08-23T12:51:31.265Z,29.60
2018-08-23T12:54:01.351Z,31.60
2018-08-23T12:56:30.844Z,31.19
2018-08-23T12:59:00.211Z,32.73
2018-08-23T13:01:29.663Z,33.60
2018-08-23T13:03:59.173Z,31.31
2018-08-23T13:06:28.480Z,33.38
2018-08-23T13:08:57.821Z,33.72
2018-08-23T13:11:27.256Z,33.35
2018-08-23T13:13:56.615Z,34.60
2018-08-23T13:16:25.938Z,35.28
2018-08-23T13:18:55.335Z,34.89
2018-08-23T13:21:24.722Z,35.49
2018-08-23T13:23:54.059Z,36.73
2018-08-23T13:26:27.597Z,37.91
2018-08-23T13:28:57.055Z,38.08
2018-08-23T13:31:26.536Z,38.20
2018-08-23T13:33:56.335Z,39.87
2018-08-23T13:36:25.864Z,38.59
2018-08-23T13:38:55.247Z,40.89
2018-08-23T13:41:24.782Z,40.38
2018-08-23T13:43:54.196Z,41.05
2018-08-23T13:46:23.486Z,41.23
2018-08-23T13:48:53.021Z,41.79
2018-08-23T13:51:22.429Z,42.49
2018-08-23T13:53:51.938Z,43.21
2018-08-23T13:56:21.335Z,41.78
2018-08-23T13:58:50.731Z,43.54
2018-08-23T14:01:23.469Z,43.90
2018-08-23T14:03:53.004Z,43.71
2018-08-23T14:06:22.420Z,43.14
2018-08-23T14:08:51.918Z,44.07
2018-08-23T14:11:21.627Z,45.13
2018-08-23T14:13:50.993Z,46.13
2018-08-23T14:16:20.490Z,48.38
2018-08-23T14:18:50.118Z,49.60
2018-08-23T14:21:19.554Z,51.18
2018-08-23T14:23:49.005Z,51.87
2018-08-23T14:26:18.420Z,51.74
2018-08-23T14:28:47.854Z,53.19
2018-08-23T14:31:17.383Z,52.81
2018-08-23T14:33:46.772Z,52.65
2018-08-23T14:36:16.708Z,54.14
2018-08-23T14:38:46.365Z,54.26
2018-08-23T14:41:15.857Z,53.53
2018-08-23T14:43:46.189Z,54.23
2018-08-23T14:46:20.901Z,55.23
2018-08-23T14:48:50.720Z,55.48
2018-08-23T14:51:20.306Z,57.18
2018-08-23T14:53:49.814Z,57.49
2018-08-23T14:56:24.373Z,58.83
2018-08-23T14:58:54.089Z,58.11
2018-08-23T15:01:23.441Z,58.30
2018-08-23T15:03:52.869Z,58.98
2018-08-23T15:06:22.268Z,57.79
2018-08-23T15:08:51.605Z,58.06
2018-08-23T15:11:21.075Z,58.72
2018-08-23T15:13:50.418Z,59.71
2018-08-23T15:16:19.860Z,59.35
2018-08-23T15:18:49.201Z,58.94
2018-08-23T15:21:18.676Z,57.81
2018-08-23T15:23:47.994Z,57.64
2018-08-23T15:26:17.528Z,57.97
2018-08-23T15:28:46.783Z,58.22
2018-08-23T15:31:16.109Z,57.53
2018-08-23T15:33:45.548Z,58.53
2018-08-23T15:36:14.900Z,59.23
2018-08-23T15:38:44.303Z,58.38
2018-08-23T15:41:13.698Z,59.01
2018-08-23T15:43:43.096Z,58.74
2018-08-23T15:46:12.572Z,58.71
2018-08-23T15:48:41.965Z,60.07
2018-08-23T15:51:11.329Z,60.40
2018-08-23T15:53:40.814Z,61.47
2018-08-23T15:56:10.276Z,62.58
2018-08-23T15:58:39.674Z,62.85
2018-08-23T16:01:09.310Z,64.21
2018-08-23T16:03:38.709Z,62.71
2018-08-23T16:06:08.064Z,61.79
2018-08-23T16:08:42.801Z,61.69
2018-08-23T16:11:12.335Z,60.89
2018-08-23T16:13:41.757Z,60.83
2018-08-23T16:17:15.836Z,60.76
2018-08-23T16:19:50.438Z,60.66
2018-08-23T16:22:19.846Z,60.67
2018-08-23T16:24:49.241Z,60.47
2018-08-23T16:27:18.673Z,59.96
2018-08-23T16:29:51.124Z,59.19
2018-08-23T16:32:25.706Z,59.59
2018-08-23T16:34:55.138Z,59.21
2018-08-23T16:37:24.529Z,59.12
2018-08-23T16:39:53.851Z,58.84
2018-08-23T16:42:23.170Z,57.55
2018-08-23T16:44:52.551Z,58.54
2018-08-23T16:47:21.975Z,59.10
2018-08-23T16:49:51.382Z,58.97
2018-08-23T16:52:20.779Z,58.64
2018-08-23T16:54:50.191Z,59.18
2018-08-23T16:57:19.533Z,59.62
2018-08-23T16:59:49.001Z,59.59
2018-08-23T17:02:18.424Z,60.70
2018-08-23T17:04:47.844Z,61.17
2018-08-23T17:07:17.743Z,62.08
2018-08-23T17:09:47.147Z,63.25
2018-08-23T17:12:16.650Z,63.41
2018-08-23T17:14:46.018Z,62.87
2018-08-23T17:17:52.879Z,63.22
2018-08-23T17:20:22.295Z,64.60
2018-08-23T17:22:51.641Z,64.72
2018-08-23T17:25:21.124Z,65.33
2018-08-23T17:27:50.644Z,62.87
2018-08-23T17:30:20.044Z,63.08
2018-08-23T17:32:49.396Z,65.26
2018-08-23T17:35:18.808Z,64.47
2018-08-23T17:37:48.159Z,64.77
2018-08-23T17:40:17.576Z,63.63
2018-08-23T17:42:47.093Z,63.81
2018-08-23T17:45:16.589Z,64.34
2018-08-23T17:47:46.069Z,63.66
2018-08-23T17:50:15.486Z,63.65
2018-08-23T17:52:44.870Z,64.36
2018-08-23T17:55:14.148Z,65.13
2018-08-23T17:57:43.508Z,65.24
2018-08-23T18:00:12.898Z,66.87
2018-08-23T18:02:42.239Z,67.17
2018-08-23T18:05:11.640Z,66.13
2018-08-23T18:07:41.100Z,66.80
2018-08-23T18:10:10.521Z,68.04
2018-08-23T18:12:39.932Z,68.86
2018-08-23T18:15:10.080Z,70.18
2018-08-23T18:17:40.512Z,70.82
2018-08-23T18:20:10.220Z,71.89
2018-08-23T18:22:39.684Z,71.65
2018-08-23T18:25:09.481Z,71.90
2018-08-23T18:27:40.071Z,71.66
2018-08-23T18:30:09.581Z,71.20
2018-08-23T18:32:39.118Z,70.76
2018-08-23T18:35:08.445Z,71.02
2018-08-23T18:37:38.048Z,71.31
2018-08-23T18:40:07.358Z,71.06
2018-08-23T18:42:36.786Z,70.52
2018-08-23T18:45:06.256Z,70.89
2018-08-23T18:47:35.702Z,70.75
2018-08-23T18:50:05.903Z,70.92
2018-08-23T18:52:35.424Z,71.27
2018-08-23T18:55:05.208Z,71.26
2018-08-23T18:57:35.377Z,71.04
2018-08-23T19:00:06.320Z,72.06
2018-08-23T19:02:36.716Z,70.76
2018-08-23T19:05:06.212Z,71.04
2018-08-23T19:07:40.620Z,71.83
2018-08-23T19:10:11.305Z,71.63
2018-08-23T19:12:40.945Z,72.00
2018-08-23T19:15:11.245Z,71.94
2018-08-23T19:17:41.719Z,71.61
2018-08-23T19:20:12.459Z,71.77
2018-08-23T19:22:41.884Z,72.01
2018-08-23T19:25:11.617Z,73.26
2018-08-23T19:27:40.891Z,72.67
2018-08-23T19:30:10.790Z,73.41
2018-08-23T19:32:40.121Z,73.91
2018-08-23T19:35:09.581Z,73.81
2018-08-23T19:37:39.001Z,73.20
2018-08-23T19:40:08.957Z,73.16
2018-08-23T19:42:38.320Z,73.38
2018-08-23T19:45:07.803Z,73.06
2018-08-23T19:47:48.781Z,73.82
2018-08-23T19:50:19.172Z,73.91
2018-08-23T19:52:49.249Z,74.91
2018-08-23T19:55:19.175Z,75.65
2018-08-23T19:57:50.433Z,76.68
2018-08-23T20:00:20.885Z,77.00
2018-08-23T20:02:50.288Z,77.01
2018-08-23T20:05:19.644Z,77.42
2018-08-23T20:07:49.073Z,76.98
2018-08-23T20:10:18.758Z,76.96
2018-08-23T20:12:48.447Z,76.10
2018-08-23T20:15:27.600Z,75.94
2018-08-23T20:17:57.646Z,76.47
2018-08-23T20:20:28.061Z,75.72
2018-08-23T20:22:58.174Z,76.21
2018-08-23T20:25:28.174Z,76.31
2018-08-23T20:27:58.611Z,76.65
2018-08-23T20:30:28.460Z,76.86
2018-08-23T20:32:58.436Z,76.78
2018-08-23T20:35:28.552Z,77.79
2018-08-23T20:37:59.939Z,77.97
2018-08-23T20:40:29.792Z,79.00
2018-08-23T20:43:00.302Z,78.67
2018-08-23T20:45:30.039Z,79.21
2018-08-23T20:47:59.953Z,78.39
2018-08-23T20:50:30.599Z,77.91
2018-08-23T20:53:00.779Z,78.30
2018-08-23T20:55:30.306Z,77.53
2018-08-23T20:57:59.774Z,78.83
2018-08-23T21:00:29.459Z,79.47
2018-08-23T21:02:59.289Z,81.42
2018-08-23T21:05:28.643Z,81.47
2018-08-23T21:07:57.977Z,81.49
2018-08-23T21:10:27.301Z,82.03
2018-08-23T21:12:56.742Z,80.70
2018-08-23T21:15:26.108Z,79.75
2018-08-23T21:17:55.474Z,81.61
2018-08-23T21:20:24.827Z,82.09
2018-08-23T21:22:54.137Z,80.16
2018-08-23T21:25:23.454Z,80.77
2018-08-23T21:27:52.855Z,80.44
2018-08-23T21:30:22.236Z,80.55
2018-08-23T21:32:51.574Z,81.06
2018-08-23T21:35:20.931Z,81.00
2018-08-23T21:37:50.338Z,80.43
2018-08-23T21:40:19.765Z,80.60
2018-08-23T21:42:49.179Z,79.63
2018-08-23T21:45:18.669Z,82.22
2018-08-23T21:47:48.082Z,80.25
2018-08-23T21:50:17.508Z,79.75
2018-08-23T21:52:46.923Z,80.12
2018-08-23T21:55:16.303Z,81.20
2018-08-23T21:57:45.696Z,81.41
2018-08-23T22:00:15.121Z,80.84
2018-08-23T22:02:44.518Z,82.04
2018-08-23T22:05:13.907Z,82.73
2018-08-23T22:07:43.256Z,83.83
2018-08-23T22:10:12.655Z,83.89
2018-08-23T22:12:42.059Z,84.20
2018-08-23T22:15:12.768Z,84.54
2018-08-23T22:17:42.076Z,84.46
2018-08-23T22:20:11.639Z,84.61
2018-08-23T22:22:41.092Z,84.07
2018-08-23T22:25:10.610Z,83.97
2018-08-23T22:27:40.052Z,85.60
2018-08-23T22:30:09.415Z,86.96
2018-08-23T22:32:38.785Z,87.49
2018-08-23T22:35:08.163Z,86.41
2018-08-23T22:37:37.886Z,88.50
2018-08-23T22:40:07.467Z,87.43
2018-08-23T22:42:36.951Z,85.36
2018-08-23T22:45:06.389Z,86.76
2018-08-23T22:47:35.753Z,87.04
2018-08-23T22:50:05.455Z,87.90
2018-08-23T22:52:34.837Z,89.26
2018-08-23T22:55:04.171Z,90.26
2018-08-23T22:57:33.484Z,90.20
2018-08-23T23:00:02.941Z,90.81
2018-08-23T23:02:38.763Z,91.30
2018-08-23T23:05:09.208Z,90.68
2018-08-23T23:07:38.614Z,89.22
2018-08-23T23:10:08.603Z,89.54
2018-08-23T23:12:38.033Z,89.62
2018-08-23T23:15:11.503Z,90.73
2018-08-23T23:17:40.868Z,90.31
2018-08-23T23:20:10.239Z,89.11
2018-08-23T23:22:39.632Z,90.61
2018-08-23T23:25:09.007Z,90.55
2018-08-23T23:27:38.366Z,90.54
2018-08-23T23:30:08.068Z,90.81
2018-08-23T23:32:37.406Z,90.59
2018-08-23T23:35:06.772Z,91.38
2018-08-23T23:37:36.185Z,91.16
2018-08-23T23:40:05.576Z,91.05
2018-08-23T23:42:34.926Z,90.85
2018-08-23T23:45:04.590Z,90.58
2018-08-23T23:47:33.937Z,88.64
2018-08-23T23:50:03.461Z,87.04
2018-08-23T23:52:32.805Z,86.89
2018-08-23T23:55:02.187Z,85.72
2018-08-23T23:57:31.519Z,85.49
